Atlantic City, NJ

1:56 AM EST en Noviembre 23, 2014 (GMT -0500)
Brigantine DPW | Change Station
CLOSE
Current Station
Estación meteorológica personal
Location: Brigantine, NJ
Altura: 16 ft
Estaciones meteorológicas cercanas

Alt 16 ft 39.39 °N, 74.39 °W | Updated 10 minutes ago

Muy nublado
Muy nublado
46.1 ° F
Sensación térmica 39 ° F
N
18.0
Viento Variable Viento desde OSO
Gusts 19.0 mph

Hoy
Alta -- | Baja -- ° F
--% Posibilidad de precipitaciones
Ayer
Alta -- | Baja -- ° F
Precip. -- pul
6:50 AM 4:37 PM
Luna nueva, 1% visible
Presión 30.25 pul
Visibilidad 10.0 Millas
Nubes Muy nublado 12000 ft
Vientos helados 39 ° F
Punto de rocío 28 ° F
Humedad 50%
Precipitaciones 0.00 pul
Espesor de la nieve No disponible.
UV 0.0 de una escala de 12
Polen .10 de una escala de 12
Calidad del aire No disponible.
Flu Activity No disponible.
METAR KACY 230554Z 23009KT 10SM BKN120 07/M04 A3025 RMK AO2 SLP242 T00671044 10067 20050 58012

More Conditions Fewer Conditions

Presión 30.25 pul
Visibilidad 10.0 Millas
Nubes Muy nublado 12000 ft
Vientos helados 39 ° F
Punto de rocío 28 ° F
Humedad 50%
Precipitaciones 0.00 pul
Espesor de la nieve No disponible.
UV 0.0 de una escala de 12
Polen .10 de una escala de 12
Calidad del aire No disponible.
Flu Activity No disponible.
METAR KACY 230554Z 23009KT 10SM BKN120 07/M04 A3025 RMK AO2 SLP242 T00671044 10067 20050 58012

More Conditions Fewer Conditions

10-Day Weather Forecast

Almanac

Astronomía

Nov. 23, 2014 Salida Puesta
Hora real
Crepúsculo civil
Crepúsculo náutico
Crepúsculo astronómico
Luna
Horas de luz
Horas de luz
Tomorrow will be .
, % of the Moon is Illuminated

Extremos de hoy

Máximos del estado Bajos del estado

Community

WunderPhotos

Upload Photos

1,773,020 ¡fotos cargadas!

WunderBlogs® & News

Nearby

Calidad del aire

  Calidad del aire Índice AQ Contaminante
Not available.

Grosos de nieve

Estación Profundido Altura

Actividad de terremotos

Ciudad Distance Mag. Tiempo y dato
Magnitud mínima muestra es 2,5.

Temperaturas de aguas costeras

Lugar Temperatura

Estaciones meteorológicas cercanas